The Sea Ranch, CA (95497)

4:40 AM PDT on August 27, 2014 (GMT -0700)
Unit 18, The Sea Ranch, CA | Change Station
CLOSE
Current Station
Personal Weather Station
Location: The Sea Ranch, CA
Elevation: 80 ft
Nearby Weather Stations

Elev 80 ft 38.71 °N, 123.45 °W | Updated 1 minute ago

Partly Cloudy
Partly Cloudy
54.6 °F
Feels Like 54.6 °F
N
1.0
Wind Variable Wind from NE
Gusts 9.0 mph

Today
High -- | Low -- °F
--% Chance of Precip.
Yesterday
High -- | Low -- °F
Precip. -- in
6:38 AM 7:51 PM
Waxing Crescent, 3% visible
Pressure 29.99 in
Visibility 10.0 miles
Clouds Clear
Dew Point 54 °F
Humidity 96%
Rainfall 0.00 in
Snow Depth Not available.
UV 0.0 out of 12
Pollen 7.00 out of 12
Air Quality Not available.
Flu Activity Not available.
METAR KUKI 271056Z AUTO 00000KT 10SM CLR 15/11 A3001 RMK AO2 SLP155 T01500106

More Conditions Fewer Conditions

Pressure 29.99 in
Visibility 10.0 miles
Clouds Clear
Dew Point 54 °F
Humidity 96%
Rainfall 0.00 in
Snow Depth Not available.
UV 0.0 out of 12
Pollen 7.00 out of 12
Air Quality Not available.
Flu Activity Not available.
METAR KUKI 271056Z AUTO 00000KT 10SM CLR 15/11 A3001 RMK AO2 SLP155 T01500106

More Conditions Fewer Conditions

10-Day Weather Forecast

Almanac

Astronomy

Aug. 27, 2014 Rise Set
Actual Time 6:38 AM PDT 7:51 PM PDT
Civil Twilight 6:11 AM PDT 8:18 PM PDT
Nautical Twilight 5:38 AM PDT 8:51 PM PDT
Astronomical Twilight 5:03 AM PDT 9:25 PM PDT
Moon 8:38 AM PDT 8:48 PM PDT
Length of Visible Light 14h 07m
Length of Day
13h 12m
Tomorrow will be 2m 23s shorter.
Waxing Crescent, 3% of the Moon is Illuminated
Today
Waxing Crescent
Sep 2
First Quarter
Sep 8
Full
Sep 15
Last Quarter
Sep 24
New

Today's Extremes

State Highs State Lows

Community

WunderPhotos

Upload Photos

1,747,670 photos uploaded!

Nearby

Snow Depth

Station Depth Elevation
CSS Lab 2 in 6900 ft
Rubicon #2 0 in 7500 ft
Echo Peak 1 in 7800 ft
Fallen Leaf 0 in 6300 ft
Forestdale Creek 0 in 8029 ft

Earthquake Activity

City Distance Mag. Time & Date
Napa, California 70 miles 2.5 10:56 AM PDT
2014-08-26
Napa, California 70 miles 3.0 6:45 AM PDT
2014-08-26
American Canyon, California 74 miles 2.8 6:12 AM PDT
2014-08-26
American Canyon, California 74 miles 2.7 5:35 AM PDT
2014-08-26
Minimum magnitude displayed is 2.5.

Coastal Water Temperatures

Place Temperature
Point Reyes, CA 64.0 °F
Arena Cove, CA 62.1 °F
San Francisco, CA 64.9 °F
Richmond, CA 66.0 °F

Nearby Weather Stations